createdAt,value
2016-10-12T00:00:17.387Z,0
2016-10-12T00:01:18.060Z,0
2016-10-12T00:02:18.730Z,0
2016-10-12T00:03:19.419Z,0
2016-10-12T00:04:20.099Z,0
2016-10-12T00:05:20.762Z,0
2016-10-12T00:06:21.478Z,0
2016-10-12T00:07:22.168Z,0
2016-10-12T00:08:22.838Z,0
2016-10-12T00:09:23.513Z,0
2016-10-12T00:10:24.191Z,0
2016-10-12T00:11:24.856Z,0
2016-10-12T00:12:25.515Z,0
2016-10-12T00:13:26.200Z,0
2016-10-12T00:14:26.865Z,0
2016-10-12T00:15:27.531Z,0
2016-10-12T00:16:28.205Z,0
2016-10-12T00:17:28.891Z,0
2016-10-12T00:18:29.557Z,0
2016-10-12T00:19:30.219Z,0
2016-10-12T00:20:30.902Z,0
2016-10-12T00:21:31.561Z,0
2016-10-12T00:22:32.228Z,0
2016-10-12T00:23:32.907Z,0
2016-10-12T00:24:33.573Z,0
2016-10-12T00:25:34.261Z,0
2016-10-12T00:26:34.930Z,0
2016-10-12T00:27:35.667Z,0
2016-10-12T00:28:36.333Z,0
2016-10-12T00:29:37.005Z,0
2016-10-12T00:30:37.674Z,0
2016-10-12T00:31:38.339Z,0
2016-10-12T00:32:39.014Z,0
2016-10-12T00:33:39.676Z,0
2016-10-12T00:34:40.356Z,0
2016-10-12T00:35:41.024Z,0
2016-10-12T00:36:41.704Z,0
2016-10-12T00:37:42.377Z,0
2016-10-12T00:38:43.051Z,0
2016-10-12T00:39:43.721Z,0
2016-10-12T00:40:44.396Z,0
2016-10-12T00:41:45.060Z,0
2016-10-12T00:42:45.736Z,0
2016-10-12T00:43:46.424Z,0
2016-10-12T00:44:47.137Z,0
2016-10-12T00:45:47.820Z,0
2016-10-12T00:46:48.493Z,0
2016-10-12T00:47:49.176Z,0
2016-10-12T00:48:49.871Z,0
2016-10-12T00:49:50.550Z,0
2016-10-12T00:50:51.216Z,0
2016-10-12T00:51:51.892Z,0
2016-10-12T00:52:52.571Z,0
2016-10-12T00:53:53.280Z,0
2016-10-12T00:54:54.033Z,0
2016-10-12T00:55:54.741Z,0
2016-10-12T00:56:55.409Z,0
2016-10-12T00:57:56.070Z,0
2016-10-12T00:58:56.740Z,0
2016-10-12T00:59:57.414Z,0
2016-10-12T01:00:58.097Z,0
2016-10-12T01:01:58.762Z,0
2016-10-12T01:02:59.506Z,0
2016-10-12T01:04:00.207Z,0
2016-10-12T01:05:00.886Z,0
2016-10-12T01:06:01.564Z,0
2016-10-12T01:07:02.233Z,0
2016-10-12T01:08:02.894Z,0
2016-10-12T01:09:03.574Z,0
2016-10-12T01:10:04.241Z,0
2016-10-12T01:11:04.919Z,0
2016-10-12T01:12:05.584Z,0
2016-10-12T01:13:06.260Z,0
2016-10-12T01:14:06.928Z,0
2016-10-12T01:15:07.606Z,0
2016-10-12T01:16:08.273Z,0
2016-10-12T01:17:08.955Z,0
2016-10-12T01:18:09.624Z,0
2016-10-12T01:19:10.291Z,0
2016-10-12T01:20:10.968Z,0
2016-10-12T01:21:11.645Z,0
2016-10-12T01:22:12.305Z,0
2016-10-12T01:23:12.982Z,0
2016-10-12T01:24:13.661Z,0
2016-10-12T01:25:14.345Z,0
2016-10-12T01:26:15.035Z,0
2016-10-12T01:27:15.718Z,0
2016-10-12T01:28:16.399Z,0
2016-10-12T01:29:17.072Z,0
2016-10-12T01:30:17.769Z,0
2016-10-12T01:31:18.464Z,0
2016-10-12T01:32:19.139Z,0
2016-10-12T01:33:19.806Z,0
2016-10-12T01:34:20.492Z,0
2016-10-12T01:35:21.156Z,0
2016-10-12T01:36:21.822Z,0
2016-10-12T01:37:22.507Z,0
2016-10-12T01:38:23.169Z,0
2016-10-12T01:39:23.837Z,0
2016-10-12T01:40:24.517Z,0
2016-10-12T01:41:25.192Z,0
2016-10-12T01:42:25.860Z,0
2016-10-12T01:43:26.540Z,0
2016-10-12T01:44:27.219Z,0
2016-10-12T01:45:27.884Z,0
2016-10-12T01:46:28.551Z,0
2016-10-12T01:47:29.217Z,0
2016-10-12T01:48:29.885Z,0
2016-10-12T01:49:30.563Z,0
2016-10-12T01:50:31.235Z,0
2016-10-12T01:51:31.906Z,0
2016-10-12T01:52:32.585Z,0
2016-10-12T01:53:33.259Z,0
2016-10-12T01:54:34.036Z,0
2016-10-12T01:55:34.704Z,0
2016-10-12T01:56:35.376Z,0
2016-10-12T01:57:36.094Z,0
2016-10-12T01:58:36.765Z,0
2016-10-12T01:59:37.442Z,0
2016-10-12T02:00:38.123Z,0
2016-10-12T02:01:38.795Z,0
2016-10-12T02:02:39.470Z,0
2016-10-12T02:03:40.136Z,0
2016-10-12T02:04:40.809Z,0
2016-10-12T02:05:41.485Z,0
2016-10-12T02:06:42.156Z,0
2016-10-12T02:07:42.828Z,0
2016-10-12T02:08:43.491Z,0
2016-10-12T02:09:44.158Z,0
2016-10-12T02:10:44.838Z,0
2016-10-12T02:11:45.504Z,0
2016-10-12T02:12:46.191Z,0
2016-10-12T02:13:46.854Z,0
2016-10-12T02:14:47.528Z,0
2016-10-12T02:15:48.203Z,0
2016-10-12T02:16:48.881Z,0
2016-10-12T02:17:49.544Z,0
2016-10-12T02:18:50.239Z,0
2016-10-12T02:19:50.914Z,0
2016-10-12T02:20:51.584Z,0
2016-10-12T02:21:52.262Z,0
2016-10-12T02:22:52.924Z,0
2016-10-12T02:23:53.600Z,0
2016-10-12T02:24:54.284Z,0
2016-10-12T02:25:54.983Z,0
2016-10-12T02:26:55.641Z,0
2016-10-12T02:27:56.317Z,0
2016-10-12T02:28:56.982Z,0
2016-10-12T02:29:57.680Z,0
2016-10-12T02:30:58.347Z,0
2016-10-12T02:31:59.034Z,0
2016-10-12T02:32:59.705Z,0
2016-10-12T02:34:00.388Z,0
2016-10-12T02:35:01.051Z,0
2016-10-12T02:36:01.717Z,0
2016-10-12T02:37:02.398Z,0
2016-10-12T02:38:03.083Z,0
2016-10-12T02:39:03.802Z,0
2016-10-12T02:40:04.479Z,0
2016-10-12T02:41:05.151Z,0
2016-10-12T02:42:05.863Z,0
2016-10-12T02:43:06.519Z,0
2016-10-12T02:44:07.212Z,0
2016-10-12T02:45:07.897Z,0
2016-10-12T02:46:08.565Z,0
2016-10-12T02:47:09.237Z,0
2016-10-12T02:48:09.923Z,0
2016-10-12T02:49:10.613Z,0
2016-10-12T02:50:11.280Z,0
2016-10-12T02:51:11.961Z,0
2016-10-12T02:52:12.650Z,0
2016-10-12T02:53:13.321Z,0
2016-10-12T02:54:14.020Z,0
2016-10-12T02:55:14.693Z,0
2016-10-12T02:56:15.371Z,0
2016-10-12T02:57:16.047Z,0
2016-10-12T02:58:16.724Z,0
2016-10-12T02:59:17.385Z,0
2016-10-12T03:00:18.102Z,0
2016-10-12T03:01:18.801Z,0
2016-10-12T03:02:19.501Z,0
2016-10-12T03:03:20.182Z,0
2016-10-12T03:04:20.907Z,0
2016-10-12T03:05:21.624Z,0
2016-10-12T03:06:22.289Z,0
2016-10-12T03:07:22.961Z,0
2016-10-12T03:08:23.640Z,0
2016-10-12T03:09:24.307Z,0
2016-10-12T03:10:24.983Z,0
2016-10-12T03:11:25.682Z,0
2016-10-12T03:12:26.361Z,0
2016-10-12T03:13:27.054Z,0
2016-10-12T03:14:27.802Z,0
2016-10-12T03:15:28.494Z,0
2016-10-12T03:16:29.176Z,0
2016-10-12T03:17:29.874Z,0
2016-10-12T03:18:30.542Z,0
2016-10-12T03:19:31.214Z,0
2016-10-12T03:20:31.883Z,0
2016-10-12T03:21:32.555Z,0
2016-10-12T03:22:33.235Z,0
2016-10-12T03:23:33.908Z,0
2016-10-12T03:24:34.579Z,0
2016-10-12T03:25:35.251Z,0
2016-10-12T03:26:35.938Z,0
2016-10-12T03:27:36.611Z,0
2016-10-12T03:28:37.269Z,0
2016-10-12T03:29:37.959Z,0
2016-10-12T03:30:38.617Z,0
2016-10-12T03:31:39.303Z,0
2016-10-12T03:32:39.975Z,0
2016-10-12T03:33:40.649Z,0
2016-10-12T03:34:41.348Z,0
2016-10-12T03:35:42.026Z,0
2016-10-12T03:36:42.702Z,0
2016-10-12T03:37:43.369Z,0
2016-10-12T03:38:44.038Z,0
2016-10-12T03:39:44.707Z,0
2016-10-12T03:40:45.399Z,0
2016-10-12T03:41:46.072Z,0
2016-10-12T03:42:46.752Z,0
2016-10-12T03:43:47.451Z,0
2016-10-12T03:44:48.130Z,0
2016-10-12T03:45:48.795Z,0
2016-10-12T03:46:49.473Z,0
2016-10-12T03:47:50.139Z,0
2016-10-12T03:48:50.812Z,0
2016-10-12T03:49:51.489Z,0
2016-10-12T03:50:52.155Z,0
2016-10-12T03:51:52.826Z,0
2016-10-12T03:52:53.512Z,0
2016-10-12T03:53:54.172Z,0
2016-10-12T03:54:54.873Z,0
2016-10-12T03:55:55.529Z,0
2016-10-12T03:56:56.219Z,0
2016-10-12T03:57:56.886Z,0
2016-10-12T03:58:57.585Z,0
2016-10-12T03:59:58.257Z,0
2016-10-12T04:00:58.926Z,0
2016-10-12T04:01:59.606Z,0
2016-10-12T04:03:00.273Z,0
2016-10-12T04:04:00.946Z,0
2016-10-12T04:05:01.619Z,0
2016-10-12T04:06:02.295Z,0
2016-10-12T04:07:02.964Z,0
2016-10-12T04:08:03.635Z,0
2016-10-12T04:09:04.307Z,0
2016-10-12T04:10:04.980Z,0
2016-10-12T04:11:05.679Z,0
2016-10-12T04:12:06.387Z,0
2016-10-12T04:13:07.052Z,0
2016-10-12T04:14:07.719Z,0
2016-10-12T04:15:08.388Z,0
2016-10-12T04:16:09.062Z,0
2016-10-12T04:17:09.741Z,0
2016-10-12T04:18:10.410Z,0
2016-10-12T04:19:11.088Z,0
2016-10-12T04:20:11.754Z,0
2016-10-12T04:21:12.428Z,0
2016-10-12T04:22:13.096Z,0
2016-10-12T04:23:13.775Z,0
2016-10-12T04:24:14.444Z,0
2016-10-12T04:25:15.111Z,0
2016-10-12T04:26:15.795Z,0
2016-10-12T04:27:16.468Z,0
2016-10-12T04:28:17.168Z,0
2016-10-12T04:29:17.864Z,0
2016-10-12T04:30:18.544Z,0
2016-10-12T04:31:19.213Z,0
2016-10-12T04:32:19.928Z,0
2016-10-12T04:33:20.616Z,0
2016-10-12T04:34:21.296Z,0
2016-10-12T04:35:21.983Z,0
2016-10-12T04:36:22.658Z,0
2016-10-12T04:37:23.339Z,0
2016-10-12T04:38:24.020Z,0
2016-10-12T04:39:24.688Z,0
2016-10-12T04:40:25.362Z,0
2016-10-12T04:41:26.035Z,0
2016-10-12T04:42:26.705Z,0
2016-10-12T04:43:27.379Z,0
2016-10-12T04:44:28.041Z,0
2016-10-12T04:45:28.713Z,0
2016-10-12T04:46:29.416Z,0
2016-10-12T04:47:30.116Z,0
2016-10-12T04:48:30.788Z,0
2016-10-12T04:49:31.493Z,0
2016-10-12T04:50:32.185Z,0
2016-10-12T04:51:32.849Z,0
2016-10-12T04:52:33.516Z,0
2016-10-12T04:53:34.190Z,0
2016-10-12T04:54:34.866Z,0
2016-10-12T04:55:35.535Z,0
2016-10-12T04:56:36.227Z,0
2016-10-12T04:57:36.894Z,0
2016-10-12T04:58:37.561Z,0
2016-10-12T04:59:38.231Z,0
2016-10-12T05:00:38.898Z,0
2016-10-12T05:01:39.566Z,0
2016-10-12T05:02:40.250Z,0
2016-10-12T05:03:40.922Z,0
2016-10-12T05:04:41.597Z,0
2016-10-12T05:05:42.267Z,0
2016-10-12T05:06:42.961Z,0
2016-10-12T05:07:43.651Z,0
2016-10-12T05:08:44.332Z,0
2016-10-12T05:09:45.017Z,0
2016-10-12T05:10:45.696Z,0
2016-10-12T05:11:46.369Z,0
2016-10-12T05:12:47.066Z,0
2016-10-12T05:13:47.751Z,0
2016-10-12T05:14:48.447Z,0
2016-10-12T05:15:49.140Z,0
2016-10-12T05:16:49.813Z,0
2016-10-12T05:17:50.610Z,0
2016-10-12T05:18:51.286Z,0
2016-10-12T05:19:51.981Z,0
2016-10-12T05:20:52.673Z,0
2016-10-12T05:21:53.376Z,0
2016-10-12T05:22:54.079Z,0
2016-10-12T05:23:54.772Z,0
2016-10-12T05:24:56.689Z,0
2016-10-12T05:25:56.571Z,0
2016-10-12T05:26:57.266Z,0
2016-10-12T05:27:57.940Z,0
2016-10-12T05:28:58.649Z,0
2016-10-12T05:29:59.313Z,0
2016-10-12T05:30:59.988Z,0
2016-10-12T05:32:00.656Z,0
2016-10-12T05:33:01.333Z,0
2016-10-12T05:34:02.000Z,0
2016-10-12T05:35:02.690Z,0
2016-10-12T05:36:03.362Z,0
2016-10-12T05:37:04.042Z,0
2016-10-12T05:38:04.746Z,0
2016-10-12T05:39:05.472Z,0
2016-10-12T05:40:06.152Z,0
2016-10-12T05:41:06.831Z,0
2016-10-12T05:42:07.508Z,0
2016-10-12T05:43:08.171Z,5
2016-10-12T05:44:08.841Z,5
2016-10-12T05:45:09.498Z,5
2016-10-12T05:46:10.184Z,5
2016-10-12T05:47:10.857Z,5
2016-10-12T05:48:11.530Z,5
2016-10-12T05:49:12.553Z,5
2016-10-12T05:50:13.241Z,5
2016-10-12T05:51:13.904Z,10
2016-10-12T05:52:14.570Z,10
2016-10-12T05:53:15.248Z,10
2016-10-12T05:54:15.921Z,10
2016-10-12T05:55:16.596Z,10
2016-10-12T05:56:21.859Z,15
2016-10-12T05:57:22.653Z,15
2016-10-12T05:58:25.254Z,15
2016-10-12T05:59:26.705Z,15
2016-10-12T06:00:27.396Z,15
2016-10-12T06:01:28.061Z,15
2016-10-12T06:02:28.767Z,15
2016-10-12T06:03:29.451Z,15
2016-10-12T06:04:30.176Z,15
2016-10-12T06:05:30.838Z,20
2016-10-12T06:06:31.516Z,20
2016-10-12T06:07:32.181Z,20
2016-10-12T06:08:32.854Z,20
2016-10-12T06:09:33.522Z,20
2016-10-12T06:10:34.216Z,20
2016-10-12T06:11:34.893Z,20
2016-10-12T06:12:35.564Z,20
2016-10-12T06:13:36.258Z,20
2016-10-12T06:14:36.940Z,20
2016-10-12T06:15:37.612Z,15
2016-10-12T06:16:38.283Z,15
2016-10-12T06:17:39.099Z,15
2016-10-12T06:18:39.716Z,15
2016-10-12T06:19:40.469Z,15
2016-10-12T06:20:41.163Z,15
2016-10-12T06:21:41.901Z,15
2016-10-12T06:22:42.573Z,20
2016-10-12T06:23:43.241Z,20
2016-10-12T06:24:43.920Z,20
2016-10-12T06:25:44.595Z,25
2016-10-12T06:26:45.258Z,30
2016-10-12T06:27:45.929Z,30
2016-10-12T06:28:46.604Z,30
2016-10-12T06:29:47.276Z,35
2016-10-12T06:30:47.946Z,35
2016-10-12T06:31:48.617Z,40
2016-10-12T06:32:49.290Z,50
2016-10-12T06:33:49.971Z,60
2016-10-12T06:34:50.638Z,65
2016-10-12T06:35:51.325Z,70
2016-10-12T06:36:52.013Z,70
2016-10-12T06:37:52.707Z,70
2016-10-12T06:38:53.384Z,70
2016-10-12T06:39:54.060Z,70
2016-10-12T06:40:54.738Z,70
2016-10-12T06:41:55.406Z,70
2016-10-12T06:42:56.103Z,65
2016-10-12T06:43:56.764Z,65
2016-10-12T06:44:57.443Z,60
2016-10-12T06:45:58.135Z,50
2016-10-12T06:46:58.810Z,45
2016-10-12T06:47:59.489Z,45
2016-10-12T06:49:00.153Z,40
2016-10-12T06:50:00.833Z,35
2016-10-12T06:51:01.506Z,35
2016-10-12T06:52:02.168Z,40
2016-10-12T06:53:02.839Z,40
2016-10-12T06:54:03.522Z,40
2016-10-12T06:55:04.182Z,40
2016-10-12T06:56:04.910Z,35
2016-10-12T06:57:05.618Z,35
2016-10-12T06:58:06.316Z,35
2016-10-12T06:59:07.032Z,35
2016-10-12T07:00:07.704Z,35
2016-10-12T07:01:08.375Z,40
2016-10-12T07:02:09.048Z,40
2016-10-12T07:03:09.719Z,45
2016-10-12T07:04:10.392Z,45
2016-10-12T07:05:11.064Z,55
2016-10-12T07:06:11.745Z,55
2016-10-12T07:07:12.425Z,55
2016-10-12T07:08:13.133Z,55
2016-10-12T07:09:13.797Z,55
2016-10-12T07:10:14.470Z,55
2016-10-12T07:11:15.142Z,55
2016-10-12T07:12:15.818Z,50
2016-10-12T07:13:16.486Z,45
2016-10-12T07:14:17.156Z,45
2016-10-12T07:15:17.837Z,40
2016-10-12T07:16:18.520Z,35
2016-10-12T07:17:19.188Z,35
2016-10-12T07:18:19.862Z,30
2016-10-12T07:19:20.647Z,30
2016-10-12T07:20:21.316Z,35
2016-10-12T07:21:21.975Z,35
2016-10-12T07:22:22.650Z,35
2016-10-12T07:23:23.322Z,35
2016-10-12T07:24:23.985Z,40
2016-10-12T07:25:24.729Z,45
2016-10-12T07:26:25.562Z,45
2016-10-12T07:27:26.271Z,45
2016-10-12T07:28:26.955Z,50
2016-10-12T07:29:27.789Z,55
2016-10-12T07:30:28.486Z,55
2016-10-12T07:31:29.160Z,60
2016-10-12T07:32:29.838Z,65
2016-10-12T07:33:30.541Z,75
2016-10-12T07:34:31.228Z,80
2016-10-12T07:35:31.900Z,85
2016-10-12T07:36:32.567Z,90
2016-10-12T07:37:33.651Z,90
2016-10-12T07:38:34.379Z,90
2016-10-12T07:39:35.059Z,85
2016-10-12T07:40:35.730Z,85
2016-10-12T07:41:36.401Z,85
2016-10-12T07:42:37.090Z,85
2016-10-12T07:43:37.900Z,90
2016-10-12T07:44:38.614Z,90
2016-10-12T07:45:39.302Z,85
2016-10-12T07:46:39.993Z,85
2016-10-12T07:47:40.704Z,85
2016-10-12T07:48:41.467Z,90
2016-10-12T07:49:42.168Z,100
2016-10-12T07:50:42.858Z,105
2016-10-12T07:51:43.581Z,105
2016-10-12T07:52:44.347Z,105
2016-10-12T07:53:45.075Z,100
2016-10-12T07:54:45.760Z,100
2016-10-12T07:55:46.548Z,90
2016-10-12T07:56:47.348Z,85
2016-10-12T07:57:48.083Z,85
2016-10-12T07:58:48.783Z,85
2016-10-12T07:59:49.575Z,85
2016-10-12T08:00:50.336Z,95
2016-10-12T08:01:51.280Z,105
2016-10-12T08:02:51.976Z,115
2016-10-12T08:03:52.731Z,125
2016-10-12T08:04:53.509Z,130
2016-10-12T08:05:54.189Z,140
2016-10-12T08:06:54.866Z,140
2016-10-12T08:07:55.566Z,145
2016-10-12T08:08:56.301Z,155
2016-10-12T08:09:57.025Z,160
2016-10-12T08:10:57.735Z,165
2016-10-12T08:11:58.571Z,175
2016-10-12T08:12:59.250Z,175
2016-10-12T08:13:59.965Z,170
2016-10-12T08:15:00.693Z,175
2016-10-12T08:16:01.572Z,175
2016-10-12T08:17:02.338Z,180
2016-10-12T08:18:03.004Z,185
2016-10-12T08:19:03.743Z,190
2016-10-12T08:20:04.421Z,195
2016-10-12T08:21:05.232Z,200
2016-10-12T08:22:05.953Z,205
2016-10-12T08:23:06.621Z,205
2016-10-12T08:24:07.336Z,210
2016-10-12T08:25:08.014Z,215
2016-10-12T08:26:08.698Z,215
2016-10-12T08:27:09.472Z,225
2016-10-12T08:28:10.307Z,230
2016-10-12T08:29:10.988Z,230
2016-10-12T08:30:11.692Z,240
2016-10-12T08:31:12.383Z,245
2016-10-12T08:32:13.178Z,245
2016-10-12T08:33:13.872Z,250
2016-10-12T08:34:14.702Z,260
2016-10-12T08:35:15.356Z,260
2016-10-12T08:36:16.170Z,260
2016-10-12T08:37:16.926Z,270
2016-10-12T08:38:17.666Z,285
2016-10-12T08:39:18.339Z,300
2016-10-12T08:40:19.052Z,310
2016-10-12T08:41:19.819Z,315
2016-10-12T08:42:20.527Z,330
2016-10-12T08:43:21.220Z,340
2016-10-12T08:44:21.928Z,365
2016-10-12T08:45:22.662Z,375
2016-10-12T08:46:23.404Z,395
2016-10-12T08:47:24.080Z,410
2016-10-12T08:48:24.769Z,435
2016-10-12T08:49:25.510Z,480
2016-10-12T08:50:26.206Z,505
2016-10-12T08:51:26.877Z,530
2016-10-12T08:52:27.605Z,545
2016-10-12T08:53:28.288Z,590
2016-10-12T08:54:28.999Z,575
2016-10-12T08:55:29.693Z,575
2016-10-12T08:56:30.364Z,615
2016-10-12T08:57:31.037Z,700
2016-10-12T08:58:31.725Z,550
2016-10-12T08:59:32.418Z,535
2016-10-12T09:00:33.148Z,510
2016-10-12T09:01:33.855Z,495
2016-10-12T09:02:34.554Z,490
2016-10-12T09:03:35.311Z,485
2016-10-12T09:04:36.054Z,495
2016-10-12T09:05:36.747Z,495
2016-10-12T09:06:37.429Z,495
2016-10-12T09:07:38.149Z,485
2016-10-12T09:08:38.841Z,475
2016-10-12T09:09:39.545Z,485
2016-10-12T09:10:40.261Z,490
2016-10-12T09:11:40.944Z,495
2016-10-12T09:12:41.626Z,485
2016-10-12T09:13:42.340Z,465
2016-10-12T09:14:43.174Z,470
2016-10-12T09:15:43.893Z,450
2016-10-12T09:16:44.601Z,415
2016-10-12T09:17:45.288Z,365
2016-10-12T09:18:45.974Z,355
2016-10-12T09:19:46.668Z,340
2016-10-12T09:20:47.355Z,300
2016-10-12T09:21:48.043Z,335
2016-10-12T09:22:48.739Z,385
2016-10-12T09:23:49.415Z,395
2016-10-12T09:24:50.105Z,345
2016-10-12T09:25:50.804Z,325
2016-10-12T09:26:51.512Z,415
2016-10-12T09:27:52.201Z,370
2016-10-12T09:28:52.930Z,235
2016-10-12T09:29:53.681Z,230
2016-10-12T09:30:54.370Z,265
2016-10-12T09:31:55.077Z,330
2016-10-12T09:32:55.800Z,365
2016-10-12T09:33:56.517Z,380
2016-10-12T09:34:57.190Z,360
2016-10-12T09:35:57.882Z,280
2016-10-12T09:36:58.564Z,315
2016-10-12T09:37:59.294Z,290
2016-10-12T09:39:00.012Z,215
2016-10-12T09:40:00.747Z,310
2016-10-12T09:41:01.434Z,330
2016-10-12T09:42:02.123Z,330
2016-10-12T09:43:02.810Z,330
2016-10-12T09:44:03.493Z,245
2016-10-12T09:45:04.194Z,190
2016-10-12T09:46:04.890Z,190
2016-10-12T09:47:05.665Z,210
2016-10-12T09:48:06.364Z,275
2016-10-12T09:49:07.062Z,265
2016-10-12T09:50:07.792Z,220
2016-10-12T09:51:08.485Z,210
2016-10-12T09:52:09.340Z,280
2016-10-12T09:53:10.038Z,320
2016-10-12T09:54:10.739Z,360
2016-10-12T09:55:11.441Z,415
2016-10-12T09:56:12.151Z,425
2016-10-12T09:57:12.842Z,345
2016-10-12T09:58:13.543Z,350
2016-10-12T09:59:14.329Z,430
2016-10-12T10:00:15.058Z,465
2016-10-12T10:01:15.739Z,435
2016-10-12T10:02:16.437Z,360
2016-10-12T10:03:17.140Z,355
2016-10-12T10:04:17.838Z,315
2016-10-12T10:05:18.522Z,275
2016-10-12T10:06:19.215Z,290
2016-10-12T10:07:19.908Z,300
2016-10-12T10:08:20.611Z,365
2016-10-12T10:09:21.306Z,410
2016-10-12T10:10:21.986Z,425
2016-10-12T10:11:22.673Z,415
2016-10-12T10:12:23.363Z,385
2016-10-12T10:13:24.053Z,330
2016-10-12T10:14:24.816Z,280
2016-10-12T10:15:25.494Z,250
2016-10-12T10:16:26.173Z,240
2016-10-12T10:17:26.835Z,230
2016-10-12T10:18:27.534Z,220
2016-10-12T10:19:28.223Z,205
2016-10-12T10:20:28.902Z,200
2016-10-12T10:21:29.645Z,195
2016-10-12T10:22:30.345Z,175
2016-10-12T10:23:31.026Z,180
2016-10-12T10:24:31.715Z,175
2016-10-12T10:25:32.436Z,170
2016-10-12T10:26:33.103Z,195
2016-10-12T10:27:33.783Z,210
2016-10-12T10:28:34.513Z,230
2016-10-12T10:29:35.204Z,230
2016-10-12T10:30:35.875Z,235
2016-10-12T10:31:36.552Z,230
2016-10-12T10:32:37.223Z,230
2016-10-12T10:33:37.900Z,230
2016-10-12T10:34:38.584Z,215
2016-10-12T10:35:39.342Z,205
2016-10-12T10:36:40.047Z,215
2016-10-12T10:37:40.742Z,215
2016-10-12T10:38:41.424Z,205
2016-10-12T10:39:42.112Z,190
2016-10-12T10:40:42.808Z,185
2016-10-12T10:41:43.481Z,150
2016-10-12T10:42:44.185Z,160
2016-10-12T10:43:44.880Z,170
2016-10-12T10:44:45.670Z,160
2016-10-12T10:45:46.368Z,130
2016-10-12T10:46:47.078Z,100
2016-10-12T10:47:47.769Z,115
2016-10-12T10:48:48.468Z,125
2016-10-12T10:49:49.180Z,120
2016-10-12T10:50:49.889Z,110
2016-10-12T10:51:50.580Z,105
2016-10-12T10:52:51.355Z,95
2016-10-12T10:53:52.066Z,125
2016-10-12T10:54:52.846Z,145
2016-10-12T10:55:53.565Z,140
2016-10-12T10:56:54.282Z,130
2016-10-12T10:57:54.995Z,135
2016-10-12T10:58:55.809Z,125
2016-10-12T10:59:56.623Z,130
2016-10-12T11:00:57.405Z,155
2016-10-12T11:01:58.108Z,170
2016-10-12T11:02:58.794Z,160
2016-10-12T11:03:59.501Z,150
2016-10-12T11:05:00.193Z,160
2016-10-12T11:06:01.049Z,170
2016-10-12T11:07:01.768Z,145
2016-10-12T11:08:02.454Z,130
2016-10-12T11:09:03.170Z,125
2016-10-12T11:10:03.881Z,125
2016-10-12T11:11:04.659Z,140
2016-10-12T11:12:05.344Z,140
2016-10-12T11:13:06.042Z,130
2016-10-12T11:14:06.749Z,130
2016-10-12T11:15:07.459Z,120
2016-10-12T11:16:08.136Z,125
2016-10-12T11:17:08.824Z,135
2016-10-12T11:18:09.542Z,155
2016-10-12T11:19:10.246Z,165
2016-10-12T11:20:10.932Z,170
2016-10-12T11:21:11.632Z,170
2016-10-12T11:22:12.337Z,160
2016-10-12T11:23:13.023Z,175
2016-10-12T11:24:13.759Z,205
2016-10-12T11:25:14.449Z,250
2016-10-12T11:26:15.157Z,250
2016-10-12T11:27:15.838Z,270
2016-10-12T11:28:16.545Z,310
2016-10-12T11:29:17.228Z,305
2016-10-12T11:30:17.941Z,320
2016-10-12T11:31:18.675Z,335
2016-10-12T11:32:19.409Z,390
2016-10-12T11:33:20.095Z,335
2016-10-12T11:34:20.823Z,260
2016-10-12T11:35:21.569Z,185
2016-10-12T11:36:22.292Z,155
2016-10-12T11:37:22.989Z,115
2016-10-12T11:38:23.692Z,105
2016-10-12T11:39:24.369Z,110
2016-10-12T11:40:25.048Z,130
2016-10-12T11:41:25.714Z,155
2016-10-12T11:42:26.397Z,175
2016-10-12T11:43:27.089Z,190
2016-10-12T11:44:27.780Z,195
2016-10-12T11:45:28.469Z,200
2016-10-12T11:46:29.181Z,205
2016-10-12T11:47:29.860Z,200
2016-10-12T11:48:30.530Z,155
2016-10-12T11:49:31.202Z,130
2016-10-12T11:50:31.858Z,95
2016-10-12T11:51:32.526Z,65
2016-10-12T11:52:33.220Z,50
2016-10-12T11:53:33.947Z,35
2016-10-12T11:54:34.620Z,30
2016-10-12T11:55:35.293Z,25
2016-10-12T11:56:36.012Z,20
2016-10-12T11:57:36.748Z,15
2016-10-12T11:58:37.454Z,15
2016-10-12T11:59:38.123Z,20
2016-10-12T12:00:38.789Z,20
2016-10-12T12:01:39.473Z,30
2016-10-12T12:02:40.187Z,40
2016-10-12T12:03:40.855Z,55
2016-10-12T12:04:41.535Z,70
2016-10-12T12:05:42.207Z,75
2016-10-12T12:06:42.940Z,95
2016-10-12T12:07:43.602Z,95
2016-10-12T12:08:44.268Z,95
2016-10-12T12:09:45.063Z,95
2016-10-12T12:10:45.736Z,105
2016-10-12T12:11:46.433Z,95
2016-10-12T12:12:47.107Z,100
2016-10-12T12:13:47.789Z,110
2016-10-12T12:14:48.463Z,125
2016-10-12T12:15:49.137Z,145
2016-10-12T12:16:49.824Z,150
2016-10-12T12:17:50.568Z,150
2016-10-12T12:18:51.267Z,150
2016-10-12T12:19:51.985Z,150
2016-10-12T12:20:52.685Z,155
2016-10-12T12:21:53.376Z,165
2016-10-12T12:22:54.094Z,170
2016-10-12T12:23:54.763Z,170
2016-10-12T12:24:55.439Z,175
2016-10-12T12:25:56.111Z,180
2016-10-12T12:26:56.789Z,180
2016-10-12T12:27:57.464Z,185
2016-10-12T12:28:58.128Z,180
2016-10-12T12:29:58.810Z,180
2016-10-12T12:30:59.521Z,180
2016-10-12T12:32:00.195Z,180
2016-10-12T12:33:00.873Z,180
2016-10-12T12:34:01.542Z,180
2016-10-12T12:35:02.215Z,175
2016-10-12T12:36:02.890Z,170
2016-10-12T12:37:03.564Z,165
2016-10-12T12:38:04.235Z,160
2016-10-12T12:39:04.902Z,160
2016-10-12T12:40:05.580Z,160
2016-10-12T12:41:06.287Z,155
2016-10-12T12:42:06.964Z,150
2016-10-12T12:43:07.649Z,150
2016-10-12T12:44:08.369Z,150
2016-10-12T12:45:09.047Z,145
2016-10-12T12:46:09.761Z,150
2016-10-12T12:47:10.516Z,150
2016-10-12T12:48:11.205Z,140
2016-10-12T12:49:11.927Z,145
2016-10-12T12:50:12.599Z,145
2016-10-12T12:51:13.281Z,130
2016-10-12T12:52:14.016Z,130
2016-10-12T12:53:14.690Z,90
2016-10-12T12:54:15.387Z,70
2016-10-12T12:55:16.087Z,65
2016-10-12T12:56:16.796Z,50
2016-10-12T12:57:17.520Z,55
2016-10-12T12:58:18.206Z,70
2016-10-12T12:59:18.911Z,60
2016-10-12T13:00:19.625Z,45
2016-10-12T13:01:20.312Z,40
2016-10-12T13:02:21.042Z,50
2016-10-12T13:03:21.786Z,70
2016-10-12T13:04:22.521Z,90
2016-10-12T13:05:23.215Z,90
2016-10-12T13:06:23.917Z,100
2016-10-12T13:07:24.591Z,110
2016-10-12T13:08:25.290Z,130
2016-10-12T13:09:26.000Z,140
2016-10-12T13:10:26.679Z,155
2016-10-12T13:11:27.382Z,170
2016-10-12T13:12:28.108Z,175
2016-10-12T13:13:28.846Z,175
2016-10-12T13:14:29.558Z,175
2016-10-12T13:15:30.243Z,175
2016-10-12T13:16:30.924Z,165
2016-10-12T13:17:31.629Z,160
2016-10-12T13:18:32.314Z,165
2016-10-12T13:19:33.021Z,170
2016-10-12T13:20:33.734Z,180
2016-10-12T13:21:34.502Z,190
2016-10-12T13:22:35.224Z,190
2016-10-12T13:23:35.883Z,195
2016-10-12T13:24:36.556Z,200
2016-10-12T13:25:37.259Z,195
2016-10-12T13:26:37.942Z,185
2016-10-12T13:27:38.628Z,180
2016-10-12T13:28:39.334Z,155
2016-10-12T13:29:40.021Z,145
2016-10-12T13:30:40.724Z,120
2016-10-12T13:31:41.442Z,85
2016-10-12T13:32:42.127Z,75
2016-10-12T13:33:42.789Z,80
2016-10-12T13:34:43.464Z,95
2016-10-12T13:35:44.134Z,85
2016-10-12T13:36:44.807Z,90
2016-10-12T13:37:45.485Z,100
2016-10-12T13:38:46.155Z,110
2016-10-12T13:39:46.844Z,125
2016-10-12T13:40:47.516Z,130
2016-10-12T13:41:48.189Z,110
2016-10-12T13:42:48.855Z,90
2016-10-12T13:43:49.553Z,95
2016-10-12T13:44:50.224Z,90
2016-10-12T13:45:50.916Z,90
2016-10-12T13:46:51.592Z,95
2016-10-12T13:47:52.259Z,95
2016-10-12T13:48:52.947Z,90
2016-10-12T13:49:53.614Z,95
2016-10-12T13:50:54.298Z,100
2016-10-12T13:51:55.022Z,105
2016-10-12T13:52:55.720Z,125
2016-10-12T13:53:56.401Z,155
2016-10-12T13:54:57.079Z,165
2016-10-12T13:55:57.775Z,170
2016-10-12T13:56:58.460Z,175
2016-10-12T13:57:59.151Z,185
2016-10-12T13:58:59.865Z,180
2016-10-12T14:00:00.589Z,175
2016-10-12T14:01:01.265Z,170
2016-10-12T14:02:01.936Z,170
2016-10-12T14:03:02.639Z,165
2016-10-12T14:04:03.356Z,165
2016-10-12T14:05:04.099Z,165
2016-10-12T14:06:04.860Z,160
2016-10-12T14:07:05.578Z,165
2016-10-12T14:08:06.268Z,165
2016-10-12T14:09:06.951Z,165
2016-10-12T14:10:07.661Z,165
2016-10-12T14:11:08.348Z,165
2016-10-12T14:12:09.069Z,165
2016-10-12T14:13:09.747Z,165
2016-10-12T14:14:10.443Z,160
2016-10-12T14:15:11.124Z,155
2016-10-12T14:16:11.803Z,155
2016-10-12T14:17:12.479Z,155
2016-10-12T14:18:13.195Z,150
2016-10-12T14:19:13.873Z,150
2016-10-12T14:20:14.556Z,145
2016-10-12T14:21:15.249Z,145
2016-10-12T14:22:15.920Z,140
2016-10-12T14:23:16.602Z,145
2016-10-12T14:24:17.316Z,135
2016-10-12T14:25:17.986Z,130